Time;durP1;ratioP1;P1;durP2;ratioP2;P2;SDS_P1;SDS_P2;PMS_P1;PMS_P2;Temp;Humidity;BMP_temperature;BMP_pressure;BME280_temperature;BME280_humidity;BME280_pressure;Samples;Min_cycle;Max_cycle;Signal;HPM_P1;HPM_P2
2020/12/05 00:00:33;;;;;;;63.83;34.23;;;3.10;99.90;;;;;;5006759;28;20248;-73
2020/12/05 00:02:58;;;;;;;62.73;34.53;;;3.10;99.90;;;;;;5026238;28;20676;-72
2020/12/05 00:05:24;;;;;;;73.33;42.43;;;3.10;99.90;;;;;;5032611;28;20218;-58
2020/12/05 00:07:49;;;;;;;65.73;38.33;;;3.10;99.90;;;;;;5031757;28;20251;-59
2020/12/05 00:10:15;;;;;;;69.13;40.57;;;3.00;99.90;;;;;;5024947;28;20607;-59
2020/12/05 00:12:40;;;;;;;58.10;35.50;;;3.00;99.90;;;;;;5021852;28;20228;-61
2020/12/05 00:15:06;;;;;;;75.67;43.07;;;3.00;99.90;;;;;;5027794;28;20221;-59
2020/12/05 00:17:32;;;;;;;67.17;38.10;;;3.00;99.90;;;;;;5021994;28;20673;-60
2020/12/05 00:19:58;;;;;;;71.57;41.40;;;3.00;99.90;;;;;;5023202;28;20230;-59
2020/12/05 00:22:23;;;;;;;62.10;34.83;;;3.00;99.90;;;;;;5006310;28;20245;-60
2020/12/05 00:24:49;;;;;;;61.37;37.70;;;3.00;99.90;;;;;;5023252;28;20304;-64
2020/12/05 00:27:20;;;;;;;59.97;35.53;;;3.00;99.90;;;;;;5022323;28;20217;-61
2020/12/05 00:29:45;;;;;;;63.00;34.93;;;2.90;99.90;;;;;;5012396;28;20909;-59
2020/12/05 00:32:11;;;;;;;45.80;26.23;;;2.90;99.90;;;;;;5021764;28;20220;-58
2020/12/05 00:34:36;;;;;;;66.10;38.17;;;3.00;99.90;;;;;;5023212;28;20244;-60
2020/12/05 00:37:02;;;;;;;64.27;39.03;;;3.00;99.90;;;;;;5016358;28;20222;-59
2020/12/05 00:39:27;;;;;;;57.37;34.80;;;2.90;99.90;;;;;;5003819;28;20685;-59
2020/12/05 00:41:53;;;;;;;62.10;39.87;;;2.90;99.90;;;;;;5021783;28;20324;-60
2020/12/05 00:44:18;;;;;;;61.03;38.57;;;2.90;99.90;;;;;;5031893;28;20306;-62
2020/12/05 00:46:44;;;;;;;69.23;39.93;;;2.80;99.90;;;;;;5030873;28;20233;-61
2020/12/05 00:49:09;;;;;;;57.90;34.50;;;2.80;99.90;;;;;;5025745;28;20217;-61
2020/12/05 00:51:35;;;;;;;61.23;36.50;;;2.80;99.90;;;;;;5021943;28;20214;-58
2020/12/05 00:54:01;;;;;;;60.67;38.50;;;2.80;99.90;;;;;;5021850;28;20198;-58
2020/12/05 00:56:26;;;;;;;56.67;35.43;;;2.80;99.90;;;;;;5021274;28;20229;-60
2020/12/05 00:58:52;;;;;;;56.53;33.47;;;2.80;99.90;;;;;;5020386;28;20213;-61
2020/12/05 01:01:17;;;;;;;60.90;37.67;;;2.80;99.90;;;;;;5011537;28;20662;-61
2020/12/05 01:03:43;;;;;;;56.87;34.13;;;2.80;99.90;;;;;;5012064;28;20234;-61
2020/12/05 01:06:13;;;;;;;61.30;37.23;;;2.80;99.90;;;;;;5015558;28;20218;-61
2020/12/05 01:08:40;;;;;;;60.03;36.13;;;2.80;99.90;;;;;;5022033;28;20232;-59
2020/12/05 01:11:09;;;;;;;63.13;37.60;;;2.80;99.90;;;;;;5003436;28;20403;-59
2020/12/05 01:13:35;;;;;;;61.17;36.60;;;2.80;99.90;;;;;;5003410;28;20674;-59
2020/12/05 01:16:00;;;;;;;58.50;37.63;;;2.80;99.90;;;;;;5017110;28;20226;-63
2020/12/05 01:18:26;;;;;;;39.83;23.13;;;2.80;99.90;;;;;;5014038;28;20385;-74
2020/12/05 01:20:51;;;;;;;59.80;34.90;;;2.80;99.90;;;;;;5025033;28;20220;-75
2020/12/05 01:23:17;;;;;;;57.57;34.57;;;2.80;99.90;;;;;;4998169;28;20210;-72
2020/12/05 01:25:43;;;;;;;53.33;31.67;;;2.90;99.90;;;;;;5003405;28;20233;-62
2020/12/05 01:28:08;;;;;;;58.50;36.73;;;2.90;99.90;;;;;;5015262;28;20221;-61
2020/12/05 01:30:34;;;;;;;50.33;32.73;;;2.90;99.90;;;;;;5023210;28;20630;-62
2020/12/05 01:33:00;;;;;;;60.53;36.70;;;2.90;99.90;;;;;;5028022;28;20587;-61
2020/12/05 01:35:25;;;;;;;56.80;35.17;;;2.90;99.90;;;;;;5006780;28;20586;-61
2020/12/05 01:37:51;;;;;;;60.37;34.93;;;2.90;99.90;;;;;;5010854;28;20209;-61
2020/12/05 01:40:16;;;;;;;68.00;37.03;;;2.90;99.90;;;;;;5021003;28;20252;-62
2020/12/05 01:42:43;;;;;;;57.20;34.67;;;2.90;99.90;;;;;;5018942;28;20312;-62
2020/12/05 01:45:09;;;;;;;63.23;38.03;;;2.90;99.90;;;;;;5017270;28;20316;-65
2020/12/05 01:47:35;;;;;;;59.50;37.57;;;2.90;99.90;;;;;;5003339;28;20218;-62
2020/12/05 01:50:01;;;;;;;58.30;38.43;;;2.90;99.90;;;;;;5017614;28;20381;-62
2020/12/05 01:52:26;;;;;;;61.03;37.80;;;2.90;99.90;;;;;;5010084;28;20669;-61
2020/12/05 01:54:52;;;;;;;60.93;36.97;;;2.90;99.90;;;;;;5001091;28;20356;-61
2020/12/05 01:57:20;;;;;;;62.43;35.73;;;2.90;99.90;;;;;;5016570;28;20214;-61
2020/12/05 01:59:46;;;;;;;59.10;36.13;;;2.90;99.90;;;;;;5019516;28;20680;-61
2020/12/05 02:02:12;;;;;;;52.43;32.53;;;2.90;99.90;;;;;;5018462;28;20221;-61
2020/12/05 02:04:50;;;;;;;59.07;36.90;;;2.90;99.90;;;;;;5018255;28;20275;-62
2020/12/05 02:07:39;;;;;;;43.87;26.33;;;2.90;99.90;;;;;;5019241;28;20631;-61
2020/12/05 02:10:09;;;;;;;57.53;33.07;;;2.80;99.90;;;;;;5014400;28;20316;-62
2020/12/05 02:12:43;;;;;;;51.90;31.70;;;2.80;99.90;;;;;;5018364;28;20244;-62
2020/12/05 02:15:18;;;;;;;57.17;34.53;;;2.80;99.90;;;;;;5020728;28;20222;-64
2020/12/05 02:17:56;;;;;;;58.03;35.77;;;2.80;99.90;;;;;;5002024;28;20581;-63
2020/12/05 02:20:22;;;;;;;43.30;26.40;;;2.80;99.90;;;;;;5001252;28;20268;-63
2020/12/05 02:22:50;;;;;;;52.33;29.37;;;2.80;99.90;;;;;;5012387;28;20316;-62
2020/12/05 02:25:16;;;;;;;56.33;34.53;;;2.80;99.90;;;;;;5002253;28;20230;-64
2020/12/05 02:27:42;;;;;;;52.13;31.73;;;2.90;99.90;;;;;;5002417;28;20253;-62
2020/12/05 02:30:09;;;;;;;50.57;32.53;;;2.90;99.90;;;;;;5007572;28;20249;-62
2020/12/05 02:32:34;;;;;;;51.93;34.03;;;2.90;99.90;;;;;;5009781;28;20292;-62
2020/12/05 02:35:00;;;;;;;40.87;25.23;;;2.90;99.90;;;;;;5019915;28;20626;-60
2020/12/05 02:37:28;;;;;;;51.23;30.20;;;2.90;99.90;;;;;;5019820;28;20202;-61
2020/12/05 02:39:56;;;;;;;55.77;33.33;;;2.90;99.90;;;;;;5019456;28;20618;-61
2020/12/05 02:42:21;;;;;;;53.13;32.57;;;2.90;99.90;;;;;;5019014;28;20658;-61
2020/12/05 02:44:53;;;;;;;52.73;32.50;;;2.90;99.90;;;;;;5019295;28;20179;-61
2020/12/05 02:47:20;;;;;;;47.83;30.87;;;2.90;99.90;;;;;;5018848;28;20174;-61
2020/12/05 02:49:46;;;;;;;48.70;30.63;;;3.00;99.90;;;;;;5020570;28;20186;-61
2020/12/05 02:52:13;;;;;;;48.80;32.03;;;3.00;99.90;;;;;;5018601;28;20190;-61
2020/12/05 02:54:38;;;;;;;48.87;28.90;;;3.00;99.90;;;;;;5019121;28;20198;-61
2020/12/05 02:57:05;;;;;;;52.10;30.40;;;3.10;99.90;;;;;;5019330;28;20190;-61
2020/12/05 02:59:31;;;;;;;43.47;26.50;;;3.10;99.90;;;;;;5019309;28;20198;-61
2020/12/05 03:01:58;;;;;;;48.10;30.60;;;3.20;99.90;;;;;;5020756;28;20638;-61
2020/12/05 03:04:23;;;;;;;49.63;31.10;;;3.20;99.90;;;;;;5018906;28;20679;-60
2020/12/05 03:06:49;;;;;;;52.83;32.70;;;3.20;99.90;;;;;;5018924;28;20243;-59
2020/12/05 03:09:15;;;;;;;49.97;30.87;;;3.20;99.90;;;;;;5018840;28;20170;-61
2020/12/05 03:11:41;;;;;;;49.00;32.13;;;3.20;99.90;;;;;;5018662;28;20543;-62
2020/12/05 03:14:06;;;;;;;49.43;29.23;;;3.20;99.90;;;;;;5027687;23;20290;-61
2020/12/05 03:16:32;;;;;;;51.17;30.00;;;3.10;99.90;;;;;;5000192;28;20302;-61
2020/12/05 03:18:58;;;;;;;49.97;30.53;;;3.10;99.90;;;;;;4999429;28;20202;-61
2020/12/05 03:21:23;;;;;;;49.47;28.83;;;3.20;99.90;;;;;;4999115;28;20214;-60
2020/12/05 03:23:49;;;;;;;43.13;25.77;;;3.20;99.90;;;;;;4998750;28;20580;-60
2020/12/05 03:26:15;;;;;;;51.90;32.60;;;3.20;99.90;;;;;;4999285;28;20178;-60
2020/12/05 03:28:41;;;;;;;51.20;30.57;;;3.20;99.90;;;;;;4999494;28;20569;-60
2020/12/05 03:31:10;;;;;;;50.57;29.53;;;3.20;99.90;;;;;;4998977;28;20270;-60
2020/12/05 03:33:37;;;;;;;43.70;27.80;;;3.20;99.90;;;;;;4998922;28;20666;-59
2020/12/05 03:36:03;;;;;;;41.97;25.73;;;3.20;99.90;;;;;;4999414;28;20184;-60
2020/12/05 03:38:29;;;;;;;43.03;27.33;;;3.30;99.90;;;;;;5013991;28;20188;-61
2020/12/05 03:40:54;;;;;;;41.53;24.53;;;3.30;99.90;;;;;;4998799;28;20206;-60
2020/12/05 03:43:20;;;;;;;43.37;27.77;;;3.30;99.90;;;;;;4999130;28;20191;-61
2020/12/05 03:45:45;;;;;;;35.03;22.30;;;3.40;99.90;;;;;;4999703;28;20566;-61
2020/12/05 03:48:12;;;;;;;40.37;23.10;;;3.40;99.90;;;;;;5000035;28;20180;-61
2020/12/05 03:50:39;;;;;;;44.17;26.53;;;3.40;99.90;;;;;;4998654;28;20211;-60
2020/12/05 03:53:04;;;;;;;42.43;27.10;;;3.40;99.90;;;;;;4998907;28;20203;-60
2020/12/05 03:55:30;;;;;;;39.73;22.77;;;3.40;99.90;;;;;;4999392;28;20178;-60
2020/12/05 03:57:55;;;;;;;35.73;23.43;;;3.50;99.90;;;;;;4998970;28;20593;-61
2020/12/05 04:00:21;;;;;;;30.63;18.40;;;3.50;99.90;;;;;;4998773;28;20279;-61
2020/12/05 04:02:46;;;;;;;37.33;22.70;;;3.50;99.90;;;;;;4997814;28;20593;-60
2020/12/05 04:05:12;;;;;;;41.83;25.40;;;3.50;99.90;;;;;;4999193;28;20182;-60
2020/12/05 04:07:37;;;;;;;39.40;24.30;;;3.60;99.90;;;;;;5000505;28;20644;-61
2020/12/05 04:10:03;;;;;;;37.33;23.77;;;3.60;99.90;;;;;;5002561;28;20176;-61
2020/12/05 04:12:29;;;;;;;33.07;21.27;;;3.60;99.90;;;;;;5002097;28;20183;-61
2020/12/05 04:14:55;;;;;;;36.73;24.83;;;3.60;99.90;;;;;;5000718;28;20214;-60
2020/12/05 04:17:20;;;;;;;43.30;25.40;;;3.60;99.90;;;;;;5000463;28;20234;-61
2020/12/05 04:19:48;;;;;;;39.97;25.60;;;3.60;99.90;;;;;;5001584;28;20206;-61
2020/12/05 04:22:13;;;;;;;39.73;26.27;;;3.60;99.90;;;;;;5002073;28;20679;-61
2020/12/05 04:24:39;;;;;;;42.90;26.93;;;3.60;99.90;;;;;;5002739;28;20242;-62
2020/12/05 04:27:04;;;;;;;38.87;25.43;;;3.60;99.90;;;;;;5002015;28;20186;-62
2020/12/05 04:29:30;;;;;;;41.40;26.23;;;3.60;99.90;;;;;;5001896;28;20175;-62
2020/12/05 04:31:55;;;;;;;39.47;24.97;;;3.60;99.90;;;;;;5003032;28;20574;-62
2020/12/05 04:34:20;;;;;;;38.57;24.17;;;3.60;99.90;;;;;;5002174;28;20191;-62
2020/12/05 04:36:46;;;;;;;39.13;23.80;;;3.60;99.90;;;;;;5001706;28;20274;-60
2020/12/05 04:39:12;;;;;;;29.83;19.63;;;3.60;99.90;;;;;;5001932;28;20190;-61
2020/12/05 04:41:37;;;;;;;43.30;28.23;;;3.60;99.90;;;;;;5001336;28;20520;-62
2020/12/05 04:44:03;;;;;;;38.93;25.00;;;3.60;99.90;;;;;;5001752;28;20191;-61
2020/12/05 04:46:31;;;;;;;40.40;24.20;;;3.60;99.90;;;;;;5001553;28;20539;-62
2020/12/05 04:48:57;;;;;;;39.27;25.50;;;3.60;99.90;;;;;;5001718;28;20325;-61
2020/12/05 04:51:34;;;;;;;40.07;24.93;;;3.60;99.90;;;;;;5001878;28;20267;-60
2020/12/05 04:54:01;;;;;;;38.97;24.30;;;3.60;99.90;;;;;;5001480;28;20195;-61
2020/12/05 04:56:36;;;;;;;40.90;26.90;;;3.60;99.90;;;;;;5001753;28;20183;-60
2020/12/05 04:59:07;;;;;;;35.90;22.53;;;3.60;99.90;;;;;;4999390;28;20182;-61
2020/12/05 05:01:38;;;;;;;36.43;22.10;;;3.70;99.90;;;;;;5002788;28;20270;-61
2020/12/05 05:04:05;;;;;;;39.67;26.63;;;3.70;99.90;;;;;;5001139;28;21014;-61
2020/12/05 05:06:31;;;;;;;39.70;26.20;;;3.70;99.90;;;;;;5004100;28;20182;-62
2020/12/05 05:08:57;;;;;;;33.27;22.87;;;3.70;99.90;;;;;;5006632;28;20187;-62
2020/12/05 05:11:26;;;;;;;39.00;23.97;;;3.70;99.90;;;;;;5016842;28;20885;-62
2020/12/05 05:13:54;;;;;;;40.90;25.17;;;3.70;99.90;;;;;;5032019;28;20214;-61
2020/12/05 05:16:21;;;;;;;29.20;18.80;;;3.70;99.90;;;;;;5032306;28;20194;-61
2020/12/05 05:18:47;;;;;;;37.20;23.83;;;3.70;99.90;;;;;;5032335;28;20634;-62
2020/12/05 05:21:33;;;;;;;38.50;26.77;;;3.80;99.90;;;;;;5030075;28;20248;-62
2020/12/05 05:24:01;;;;;;;35.83;23.17;;;3.80;99.90;;;;;;5032025;28;20558;-62
2020/12/05 05:26:27;;;;;;;31.80;19.83;;;3.80;99.90;;;;;;5031726;28;20646;-62
2020/12/05 05:28:52;;;;;;;41.03;25.97;;;3.90;99.90;;;;;;5031989;28;20228;-62
2020/12/05 05:31:43;;;;;;;40.03;25.90;;;3.90;99.90;;;;;;5015876;28;20174;-61
2020/12/05 05:34:17;;;;;;;33.33;22.30;;;3.80;99.90;;;;;;5031797;28;20281;-61
2020/12/05 05:36:43;;;;;;;39.70;26.47;;;3.80;99.90;;;;;;5031843;28;20165;-62
2020/12/05 05:39:11;;;;;;;42.90;27.90;;;3.80;99.90;;;;;;5031553;28;20186;-62
2020/12/05 05:41:38;;;;;;;42.83;28.60;;;3.80;99.90;;;;;;5030448;28;20265;-62
2020/12/05 05:44:07;;;;;;;38.43;26.43;;;3.80;99.90;;;;;;5031459;28;20200;-62
2020/12/05 05:46:42;;;;;;;45.13;28.90;;;3.80;99.90;;;;;;5031628;28;20233;-62
2020/12/05 05:49:09;;;;;;;43.60;27.53;;;3.70;99.90;;;;;;5010405;28;20187;-62
2020/12/05 05:51:39;;;;;;;43.90;28.03;;;3.70;99.90;;;;;;5009590;28;20233;-62
2020/12/05 05:54:12;;;;;;;44.80;28.83;;;3.70;99.90;;;;;;5010543;28;20689;-62
2020/12/05 05:56:37;;;;;;;45.00;28.50;;;3.70;99.90;;;;;;5011999;28;20218;-61
2020/12/05 05:59:05;;;;;;;39.63;23.03;;;3.70;99.90;;;;;;5019850;28;20193;-62
2020/12/05 06:01:35;;;;;;;40.20;27.63;;;3.70;99.90;;;;;;5030961;28;20678;-61
2020/12/05 06:04:03;;;;;;;31.53;20.70;;;3.70;99.90;;;;;;5031361;28;20198;-62
2020/12/05 06:06:32;;;;;;;40.07;26.37;;;3.70;99.90;;;;;;5013016;28;20187;-61
2020/12/05 06:09:01;;;;;;;36.20;20.70;;;3.80;99.90;;;;;;5010671;28;20198;-62
2020/12/05 06:11:30;;;;;;;34.90;22.43;;;3.80;99.90;;;;;;5011313;28;20186;-62
2020/12/05 06:14:00;;;;;;;38.97;23.00;;;3.90;99.90;;;;;;5011238;28;20211;-61
2020/12/05 06:16:25;;;;;;;36.87;22.17;;;3.90;99.90;;;;;;5011673;28;20175;-62
2020/12/05 06:18:56;;;;;;;32.33;21.03;;;3.90;99.90;;;;;;5022772;28;20186;-62
2020/12/05 06:21:22;;;;;;;36.97;22.03;;;3.90;99.90;;;;;;5017150;28;20238;-62
2020/12/05 06:23:51;;;;;;;41.37;25.40;;;3.90;99.90;;;;;;4993620;28;20211;-61
2020/12/05 06:26:31;;;;;;;36.73;23.07;;;4.00;99.90;;;;;;4995176;28;20183;-62
2020/12/05 06:29:00;;;;;;;37.83;24.43;;;3.90;99.90;;;;;;5044273;28;20269;-62
2020/12/05 06:31:42;;;;;;;33.67;20.37;;;3.90;99.90;;;;;;5024042;28;20179;-63
2020/12/05 06:34:32;;;;;;;34.27;20.90;;;4.00;99.90;;;;;;5030658;28;20190;-63
2020/12/05 06:36:58;;;;;;;43.37;28.27;;;3.90;99.90;;;;;;5029990;28;20545;-63
2020/12/05 06:39:23;;;;;;;43.27;26.20;;;3.90;99.90;;;;;;5028256;28;20265;-62
2020/12/05 06:41:50;;;;;;;43.03;25.53;;;3.90;99.90;;;;;;5021119;28;20175;-61
2020/12/05 06:44:18;;;;;;;37.63;24.83;;;3.90;99.90;;;;;;5010582;28;20199;-64
2020/12/05 06:47:06;;;;;;;35.17;22.47;;;3.90;99.90;;;;;;5010362;28;20210;-61
2020/12/05 06:49:37;;;;;;;42.93;25.27;;;3.90;99.90;;;;;;5024028;28;20281;-62
2020/12/05 06:52:24;;;;;;;40.43;27.20;;;4.00;99.90;;;;;;5010389;28;20171;-62
2020/12/05 06:54:56;;;;;;;42.27;28.10;;;4.10;99.90;;;;;;5008157;28;20207;-62
2020/12/05 06:57:27;;;;;;;39.23;26.50;;;4.10;99.90;;;;;;4992912;28;20183;-61
2020/12/05 07:00:17;;;;;;;34.73;20.63;;;4.10;99.90;;;;;;4990559;28;20286;-62
2020/12/05 07:03:09;;;;;;;21.00;13.73;;;3.90;99.90;;;;;;4990711;28;20533;-62
2020/12/05 07:05:43;;;;;;;29.40;18.63;;;3.80;99.90;;;;;;4989636;28;20183;-61
2020/12/05 07:08:41;;;;;;;24.23;15.30;;;3.70;99.90;;;;;;5001640;28;20183;-62
2020/12/05 07:11:10;;;;;;;37.13;23.00;;;3.60;99.90;;;;;;4993921;28;20220;-62
2020/12/05 07:13:43;;;;;;;33.80;19.57;;;3.50;99.90;;;;;;4991078;28;20216;-61
2020/12/05 07:16:24;;;;;;;35.57;25.10;;;3.50;99.90;;;;;;4990429;28;20180;-61
2020/12/05 07:18:53;;;;;;;22.47;16.13;;;3.40;99.90;;;;;;5011679;28;20584;-61
2020/12/05 07:21:20;;;;;;;23.90;15.00;;;3.40;99.90;;;;;;5029250;28;20198;-61
2020/12/05 07:23:46;;;;;;;42.50;26.27;;;3.40;99.90;;;;;;5028518;28;20658;-62
2020/12/05 07:26:13;;;;;;;34.43;21.00;;;3.30;99.90;;;;;;5029839;28;20182;-61
2020/12/05 07:28:47;;;;;;;36.37;23.33;;;3.30;99.90;;;;;;5027310;28;20253;-61
2020/12/05 07:31:14;;;;;;;36.03;23.47;;;3.30;99.90;;;;;;5028172;28;20181;-60
2020/12/05 07:33:39;;;;;;;35.37;22.03;;;3.30;99.90;;;;;;5027523;28;20705;-61
2020/12/05 07:36:07;;;;;;;34.77;21.03;;;3.20;99.90;;;;;;5025731;28;20179;-61
2020/12/05 07:38:36;;;;;;;31.00;20.57;;;3.20;99.90;;;;;;5017302;28;20489;-60
2020/12/05 07:41:18;;;;;;;21.63;16.07;;;3.20;99.90;;;;;;5029616;28;20588;-62
2020/12/05 07:43:45;;;;;;;36.93;24.00;;;3.30;99.90;;;;;;5033680;28;20198;-62
2020/12/05 07:46:13;;;;;;;37.77;23.60;;;3.30;99.90;;;;;;5033756;28;20265;-61
2020/12/05 07:48:40;;;;;;;35.70;22.47;;;3.30;99.90;;;;;;5031984;28;20681;-62
2020/12/05 07:51:13;;;;;;;39.00;24.90;;;3.30;99.90;;;;;;5033966;28;20174;-62
2020/12/05 07:53:39;;;;;;;43.20;25.20;;;3.30;99.90;;;;;;5033685;28;20256;-61
2020/12/05 07:56:21;;;;;;;41.77;27.40;;;3.30;99.90;;;;;;5028104;28;20183;-62
2020/12/05 07:58:53;;;;;;;36.87;22.23;;;3.30;99.90;;;;;;5022938;28;20179;-61
2020/12/05 08:01:48;;;;;;;35.77;24.70;;;3.30;99.90;;;;;;5033006;28;20681;-62
2020/12/05 08:04:59;;;;;;;31.43;19.30;;;3.40;99.90;;;;;;5033384;28;20222;-62
2020/12/05 08:07:45;;;;;;;41.63;28.57;;;3.40;99.90;;;;;;5030918;28;20708;-62
2020/12/05 08:10:17;;;;;;;40.67;25.73;;;3.40;99.90;;;;;;5003402;28;20191;-60
2020/12/05 08:13:05;;;;;;;37.00;24.57;;;3.40;99.90;;;;;;5000548;28;20172;-64
2020/12/05 08:15:33;;;;;;;43.80;28.10;;;3.40;99.90;;;;;;5017069;28;20585;-61
2020/12/05 08:18:00;;;;;;;35.93;23.10;;;3.50;99.90;;;;;;5011509;28;20257;-62
2020/12/05 08:20:27;;;;;;;38.23;25.30;;;3.50;99.90;;;;;;5032631;28;20186;-62
2020/12/05 08:22:52;;;;;;;32.37;19.77;;;3.50;99.90;;;;;;5026746;28;20210;-62
2020/12/05 08:25:18;;;;;;;40.20;25.63;;;3.50;99.90;;;;;;5026493;28;20226;-67
2020/12/05 08:27:44;;;;;;;32.10;21.80;;;3.50;99.90;;;;;;5012501;28;20179;-66
2020/12/05 08:30:11;;;;;;;33.00;20.17;;;3.60;99.90;;;;;;5033317;28;20259;-66
2020/12/05 08:32:37;;;;;;;31.03;19.73;;;3.60;99.90;;;;;;5013936;28;20250;-67
2020/12/05 08:35:07;;;;;;;32.90;20.60;;;3.60;99.90;;;;;;5012453;28;20616;-67
2020/12/05 08:37:33;;;;;;;34.33;22.40;;;3.60;99.90;;;;;;5011793;28;20194;-67
2020/12/05 08:39:59;;;;;;;39.93;25.80;;;3.60;99.90;;;;;;5023448;28;20278;-66
2020/12/05 08:42:26;;;;;;;37.77;25.77;;;3.70;99.90;;;;;;5011915;28;20183;-68
2020/12/05 08:44:52;;;;;;;36.33;23.37;;;3.70;99.90;;;;;;5012859;28;20233;-65
2020/12/05 08:47:18;;;;;;;27.47;17.23;;;3.70;99.90;;;;;;5011551;28;20639;-65
2020/12/05 08:49:48;;;;;;;34.60;23.23;;;3.70;99.90;;;;;;5026686;28;20240;-65
2020/12/05 08:52:16;;;;;;;35.13;22.87;;;3.70;99.90;;;;;;5015278;28;20656;-66
2020/12/05 08:54:49;;;;;;;25.43;15.63;;;3.80;99.90;;;;;;5024835;28;20602;-67
2020/12/05 08:57:15;;;;;;;34.73;24.20;;;3.80;99.90;;;;;;5009195;28;20194;-65
2020/12/05 08:59:45;;;;;;;40.77;23.80;;;3.80;99.90;;;;;;5012943;28;20203;-67
2020/12/05 09:02:12;;;;;;;32.90;22.43;;;3.90;99.90;;;;;;5005228;28;20782;-67
2020/12/05 09:04:38;;;;;;;33.43;21.77;;;3.90;99.90;;;;;;5012493;28;20194;-68
2020/12/05 09:07:08;;;;;;;36.67;23.87;;;3.90;99.90;;;;;;5012278;28;20224;-68
2020/12/05 09:09:34;;;;;;;36.60;23.27;;;3.90;99.90;;;;;;5012115;28;20592;-66
2020/12/05 09:12:24;;;;;;;31.20;21.07;;;3.90;99.90;;;;;;5023939;28;20174;-67
2020/12/05 09:14:50;;;;;;;40.17;21.77;;;4.00;99.90;;;;;;5056005;22;20628;-74
2020/12/05 09:17:26;;;;;;;32.00;19.97;;;4.00;99.90;;;;;;5035871;28;20171;-68
2020/12/05 09:19:58;;;;;;;33.63;21.57;;;4.10;99.90;;;;;;5030793;28;20726;-70
2020/12/05 09:22:34;;;;;;;23.17;14.70;;;4.10;99.90;;;;;;5036363;28;20201;-71
2020/12/05 09:32:02;;;;;;;34.73;21.47;;;4.20;99.90;;;;;;5018973;28;20213;-71
2020/12/05 09:34:32;;;;;;;29.87;19.97;;;4.20;99.90;;;;;;5019915;28;20217;-71
2020/12/05 09:36:58;;;;;;;29.17;18.47;;;4.30;99.90;;;;;;5017958;28;20237;-72
2020/12/05 09:39:29;;;;;;;25.70;14.70;;;4.30;99.90;;;;;;5019548;28;20590;-72
2020/12/05 09:41:55;;;;;;;31.67;21.63;;;4.30;99.90;;;;;;5020843;28;20198;-72
2020/12/05 09:44:21;;;;;;;31.00;20.73;;;4.40;99.90;;;;;;5022297;28;20217;-72
2020/12/05 09:46:46;;;;;;;29.20;19.33;;;4.50;99.90;;;;;;5015891;28;20206;-72
2020/12/05 09:49:13;;;;;;;32.40;21.33;;;4.50;99.90;;;;;;5005423;28;20184;-71
2020/12/05 14:06:03;;;;;;;24.80;16.90;;;4.80;99.90;;;;;;5105430;27;20914;-61
2020/12/05 14:08:29;;;;;;;27.80;19.77;;;4.70;99.90;;;;;;5085256;28;20173;-61
2020/12/05 14:10:55;;;;;;;26.53;19.70;;;4.70;99.90;;;;;;5084458;28;20184;-60
2020/12/05 14:13:20;;;;;;;23.20;17.63;;;4.70;99.90;;;;;;5086047;28;20172;-60
2020/12/05 14:15:46;;;;;;;25.80;19.73;;;4.70;99.90;;;;;;5086565;28;20212;-61
2020/12/05 14:18:11;;;;;;;27.67;19.67;;;4.70;99.90;;;;;;5084711;28;20208;-61
2020/12/05 14:20:37;;;;;;;29.67;18.37;;;4.70;99.90;;;;;;5087402;22;20306;-60
2020/12/05 14:23:02;;;;;;;24.57;18.80;;;4.80;99.90;;;;;;5063713;28;20177;-62
2020/12/05 14:25:28;;;;;;;26.37;19.90;;;4.80;99.90;;;;;;5064361;28;20254;-62
2020/12/05 14:27:54;;;;;;;26.20;18.87;;;4.70;99.90;;;;;;5062704;28;20256;-62
2020/12/05 14:30:19;;;;;;;24.60;18.13;;;4.80;99.90;;;;;;5063021;28;20289;-61
2020/12/05 14:32:44;;;;;;;22.77;17.73;;;4.80;99.90;;;;;;5064510;28;20188;-61
2020/12/05 14:35:10;;;;;;;25.33;16.97;;;4.80;99.90;;;;;;5064166;28;20268;-61
2020/12/05 14:37:35;;;;;;;22.57;17.03;;;4.80;99.90;;;;;;5064910;28;20177;-68
2020/12/05 14:40:02;;;;;;;26.33;17.90;;;4.80;99.90;;;;;;5060852;28;20898;-69
2020/12/05 14:42:27;;;;;;;20.70;15.67;;;4.80;99.90;;;;;;5061830;28;20239;-68
2020/12/05 14:44:53;;;;;;;24.03;16.83;;;4.80;99.90;;;;;;5064795;28;20239;-68
2020/12/05 14:47:18;;;;;;;23.63;15.40;;;4.80;99.90;;;;;;5064927;28;20601;-68
2020/12/05 14:49:44;;;;;;;21.57;15.70;;;4.80;99.90;;;;;;5064063;28;20196;-68
2020/12/05 14:52:09;;;;;;;20.67;14.47;;;4.80;99.90;;;;;;5065195;28;20219;-68
2020/12/05 14:54:35;;;;;;;22.33;17.67;;;4.80;99.90;;;;;;5064413;28;20177;-68
2020/12/05 14:57:00;;;;;;;22.03;17.23;;;4.80;99.90;;;;;;5066618;28;20220;-67
2020/12/05 14:59:25;;;;;;;23.97;17.17;;;4.80;99.90;;;;;;5065132;28;20239;-68
2020/12/05 15:01:52;;;;;;;21.43;16.27;;;4.80;99.90;;;;;;5065775;28;20256;-68
2020/12/05 15:04:18;;;;;;;24.70;17.67;;;4.80;99.90;;;;;;5063336;28;20247;-68
2020/12/05 15:06:43;;;;;;;26.63;18.63;;;4.80;99.90;;;;;;5068133;28;20174;-67
2020/12/05 15:09:09;;;;;;;25.13;19.47;;;4.70;99.90;;;;;;5067615;28;20193;-68
2020/12/05 15:11:34;;;;;;;24.83;18.17;;;4.70;99.90;;;;;;5070245;28;20188;-68
2020/12/05 15:14:02;;;;;;;23.43;18.27;;;4.70;99.90;;;;;;5068215;28;20235;-67
2020/12/05 15:16:27;;;;;;;24.77;19.27;;;4.70;99.90;;;;;;5058117;28;20177;-69
2020/12/05 15:18:53;;;;;;;24.80;18.13;;;4.80;99.90;;;;;;5052603;28;20188;-70
2020/12/05 15:21:18;;;;;;;23.03;17.03;;;4.80;99.90;;;;;;5051633;28;20194;-69
2020/12/05 15:23:44;;;;;;;24.47;17.30;;;4.80;99.90;;;;;;5051984;28;20181;-68
2020/12/05 15:26:09;;;;;;;22.90;17.77;;;4.80;99.90;;;;;;5050135;28;20708;-65
2020/12/05 15:28:35;;;;;;;24.50;17.80;;;4.80;99.90;;;;;;5049607;28;20197;-64
2020/12/05 15:31:01;;;;;;;24.53;15.53;;;4.80;99.90;;;;;;5050527;28;20236;-64
2020/12/05 15:33:26;;;;;;;26.13;17.57;;;4.80;99.90;;;;;;5050975;28;20173;-64
2020/12/05 15:36:00;;;;;;;20.43;16.33;;;4.70;99.90;;;;;;5050142;28;20691;-64
2020/12/05 15:38:27;;;;;;;24.13;17.67;;;4.70;99.90;;;;;;5050047;28;20178;-65
2020/12/05 15:40:53;;;;;;;23.20;16.83;;;4.80;99.90;;;;;;5049089;28;20684;-65
2020/12/05 15:43:18;;;;;;;21.43;16.57;;;4.80;99.90;;;;;;5050743;28;20178;-65
2020/12/05 15:45:44;;;;;;;22.13;16.57;;;4.80;99.90;;;;;;5050342;28;20585;-64
2020/12/05 15:48:09;;;;;;;21.50;17.50;;;4.80;99.90;;;;;;5050700;28;20185;-66
2020/12/05 15:50:34;;;;;;;24.20;17.50;;;4.80;99.90;;;;;;5047828;28;20205;-65
2020/12/05 15:53:00;;;;;;;27.03;19.17;;;4.80;99.90;;;;;;5050021;28;20193;-65
2020/12/05 15:55:25;;;;;;;25.27;17.97;;;4.80;99.90;;;;;;5050496;28;20192;-65
2020/12/05 15:57:51;;;;;;;26.67;17.57;;;4.80;99.90;;;;;;5050121;28;20232;-65
2020/12/05 16:00:16;;;;;;;25.17;18.77;;;4.80;99.90;;;;;;5050260;28;20542;-65
2020/12/05 16:02:42;;;;;;;25.80;17.57;;;4.80;99.90;;;;;;5049174;28;20194;-62
2020/12/05 16:05:07;;;;;;;25.90;18.80;;;4.80;99.90;;;;;;5049730;28;20209;-65
2020/12/05 16:07:33;;;;;;;25.40;18.77;;;4.80;99.90;;;;;;5050237;28;20173;-64
2020/12/05 16:09:58;;;;;;;24.83;19.00;;;4.80;99.90;;;;;;5050030;28;20236;-65
2020/12/05 16:12:24;;;;;;;24.90;18.33;;;4.80;99.90;;;;;;5050700;28;20691;-65
2020/12/05 16:14:50;;;;;;;23.90;18.27;;;4.80;99.90;;;;;;5049973;28;20178;-67
2020/12/05 16:17:15;;;;;;;23.97;18.63;;;4.80;99.90;;;;;;5048397;28;20209;-67
2020/12/05 16:19:41;;;;;;;25.10;18.67;;;4.80;99.90;;;;;;5049468;28;20226;-66
2020/12/05 16:22:06;;;;;;;25.97;19.17;;;4.80;99.90;;;;;;5049172;28;20615;-68
2020/12/05 16:24:32;;;;;;;26.67;19.43;;;4.80;99.90;;;;;;5048462;28;20639;-67
2020/12/05 16:26:58;;;;;;;25.33;18.60;;;4.80;99.90;;;;;;5048970;28;20173;-67
2020/12/05 16:29:23;;;;;;;25.87;18.50;;;4.80;99.90;;;;;;5049127;28;20264;-69
2020/12/05 16:31:53;;;;;;;27.17;18.77;;;4.80;99.90;;;;;;5049612;28;20174;-68
2020/12/05 16:34:21;;;;;;;27.80;19.20;;;4.80;99.90;;;;;;5049284;28;20170;-68
2020/12/05 16:36:47;;;;;;;26.20;19.47;;;4.80;99.90;;;;;;5047791;28;20192;-68
2020/12/05 16:39:12;;;;;;;27.57;20.07;;;4.80;99.90;;;;;;5049756;28;20185;-69
2020/12/05 16:41:39;;;;;;;27.13;18.73;;;4.80;99.90;;;;;;5049850;28;20590;-69
2020/12/05 16:44:04;;;;;;;28.80;20.40;;;4.80;99.90;;;;;;5049818;28;20561;-69
2020/12/05 16:46:30;;;;;;;28.07;19.63;;;4.80;99.90;;;;;;5048256;28;20181;-70
2020/12/05 16:48:55;;;;;;;25.77;19.33;;;4.80;99.90;;;;;;5052309;28;20228;-80
2020/12/05 16:51:21;;;;;;;26.13;18.63;;;4.80;99.90;;;;;;5057443;28;20193;-76
2020/12/05 16:53:46;;;;;;;26.93;18.87;;;4.80;99.90;;;;;;5051714;28;20166;-79
2020/12/05 16:56:12;;;;;;;29.97;19.77;;;4.80;99.90;;;;;;5049156;28;20177;-76
2020/12/05 16:58:38;;;;;;;25.33;18.47;;;4.80;99.90;;;;;;5050092;28;20197;-76
2020/12/05 17:01:03;;;;;;;26.90;19.87;;;4.80;99.90;;;;;;5049865;28;20601;-77